Time;durP1;ratioP1;P1;durP2;ratioP2;P2;SDS_P1;SDS_P2;PMS_P1;PMS_P2;Temp;Humidity;BMP_temperature;BMP_pressure;BME280_temperature;BME280_humidity;BME280_pressure;Samples;Min_cycle;Max_cycle;Signal;HPM_P1;HPM_P2
2023/11/21 05:01:56;;;;;;;10.88;7.20;;;6.80;99.90;;;;;;5275849;23;20638;-75
2023/11/21 05:04:23;;;;;;;13.10;8.50;;;6.80;99.90;;;;;;5003119;28;20219;-76
2023/11/21 05:06:49;;;;;;;17.42;9.07;;;6.80;99.90;;;;;;4996814;28;20215;-75
2023/11/21 05:09:17;;;;;;;8.45;5.90;;;6.80;99.90;;;;;;4999269;28;20210;-75
2023/11/21 05:11:43;;;;;;;8.63;7.18;;;6.80;99.90;;;;;;4994948;28;20270;-74
2023/11/21 05:14:10;;;;;;;9.07;6.32;;;6.80;99.90;;;;;;4993576;28;20572;-75
2023/11/21 05:16:37;;;;;;;11.30;7.78;;;6.80;99.90;;;;;;4993986;28;20231;-76
2023/11/21 05:19:06;;;;;;;9.95;6.78;;;6.80;99.90;;;;;;4992514;28;20204;-76
2023/11/21 05:21:33;;;;;;;12.48;8.18;;;6.70;99.90;;;;;;4985823;28;20224;-76
2023/11/21 05:24:00;;;;;;;15.35;7.63;;;6.80;99.90;;;;;;4991310;28;20219;-76
2023/11/21 05:26:27;;;;;;;13.70;7.40;;;6.70;99.90;;;;;;4989958;28;20255;-76
2023/11/21 05:28:54;;;;;;;12.77;6.88;;;6.70;99.90;;;;;;4983674;28;20208;-76
2023/11/21 05:31:21;;;;;;;12.10;7.55;;;6.70;99.90;;;;;;4983709;28;20228;-76
2023/11/21 05:33:48;;;;;;;18.42;7.20;;;6.70;99.90;;;;;;4982606;28;20228;-75
2023/11/21 05:36:16;;;;;;;12.05;6.70;;;6.70;99.90;;;;;;4979252;28;20209;-75
2023/11/21 05:38:43;;;;;;;11.38;7.50;;;6.70;99.90;;;;;;4979545;28;20223;-72
2023/11/21 05:41:11;;;;;;;15.43;8.60;;;6.70;99.90;;;;;;4983126;28;20227;-73
2023/11/21 05:43:37;;;;;;;10.02;6.75;;;6.70;99.90;;;;;;4984958;28;20566;-71
2023/11/21 05:46:05;;;;;;;8.55;7.15;;;6.60;99.90;;;;;;4977936;28;20292;-72
2023/11/21 05:48:32;;;;;;;8.07;5.90;;;6.70;99.90;;;;;;4983540;28;20200;-72
2023/11/21 05:50:59;;;;;;;8.15;6.30;;;6.60;99.90;;;;;;4983281;28;20228;-73
2023/11/21 05:53:27;;;;;;;14.93;7.45;;;6.60;99.90;;;;;;4988188;28;20254;-73
2023/11/21 05:55:54;;;;;;;14.30;6.80;;;6.60;99.90;;;;;;4980105;28;20211;-73
2023/11/21 05:58:20;;;;;;;14.75;8.00;;;6.60;99.90;;;;;;4980761;28;20204;-72
2023/11/21 06:00:47;;;;;;;11.35;7.72;;;6.70;99.90;;;;;;4977629;28;20240;-72
2023/11/21 06:03:14;;;;;;;10.70;6.55;;;6.60;99.90;;;;;;4975918;28;20219;-73
2023/11/21 06:05:40;;;;;;;9.93;6.65;;;6.60;99.90;;;;;;4977099;28;20209;-72
2023/11/21 06:08:07;;;;;;;10.00;7.07;;;6.60;99.90;;;;;;4975972;28;20201;-73
2023/11/21 06:10:35;;;;;;;13.07;7.20;;;6.60;99.90;;;;;;4981447;28;20236;-73
2023/11/21 06:13:03;;;;;;;8.55;7.00;;;6.60;99.90;;;;;;4975791;28;20204;-73
2023/11/21 06:15:30;;;;;;;11.73;7.05;;;6.60;99.90;;;;;;4976739;28;20267;-73
2023/11/21 06:17:57;;;;;;;9.27;6.55;;;6.60;99.90;;;;;;4980459;28;20247;-73
2023/11/21 06:20:23;;;;;;;12.52;7.43;;;6.60;99.90;;;;;;4982827;28;20204;-73
2023/11/21 06:22:51;;;;;;;12.25;6.90;;;6.60;99.90;;;;;;4981131;28;20239;-73
2023/11/21 06:25:18;;;;;;;12.52;8.00;;;6.60;99.90;;;;;;4981007;28;20701;-73
2023/11/21 06:27:48;;;;;;;10.43;7.45;;;6.60;99.90;;;;;;4980550;28;20232;-73
2023/11/21 06:30:15;;;;;;;12.38;7.50;;;6.60;99.90;;;;;;4978734;28;20285;-73
2023/11/21 06:32:45;;;;;;;9.30;7.00;;;6.60;99.90;;;;;;4980098;28;20205;-73
2023/11/21 06:35:13;;;;;;;7.95;5.47;;;6.60;99.90;;;;;;4982991;28;20210;-72
2023/11/21 06:37:40;;;;;;;9.63;7.15;;;6.60;99.90;;;;;;4985101;28;20231;-72
2023/11/21 06:40:09;;;;;;;9.98;5.95;;;6.60;99.90;;;;;;4976631;28;20214;-72
2023/11/21 06:42:36;;;;;;;8.95;7.22;;;6.60;99.90;;;;;;4979287;28;20228;-72
2023/11/21 06:45:05;;;;;;;8.73;6.93;;;6.60;99.90;;;;;;4976699;28;20620;-72
2023/11/21 06:47:32;;;;;;;10.38;7.82;;;6.60;99.90;;;;;;4978379;28;20236;-72
2023/11/21 06:49:59;;;;;;;7.72;6.53;;;6.60;99.90;;;;;;4977927;28;20219;-71
2023/11/21 06:52:26;;;;;;;9.65;6.30;;;6.60;99.90;;;;;;4982824;28;20227;-72
2023/11/21 06:54:53;;;;;;;10.95;7.15;;;6.60;99.90;;;;;;4982852;28;20587;-71
2023/11/21 06:57:21;;;;;;;10.80;6.32;;;6.60;99.90;;;;;;4977214;28;20213;-73
2023/11/21 06:59:47;;;;;;;9.20;7.88;;;6.60;99.90;;;;;;4977169;28;20209;-71
2023/11/21 07:02:18;;;;;;;7.63;6.85;;;6.60;99.90;;;;;;4980553;28;20235;-72
2023/11/21 07:04:45;;;;;;;8.73;7.00;;;6.60;99.90;;;;;;4984772;28;20203;-71
2023/11/21 07:07:11;;;;;;;14.73;8.30;;;6.60;99.90;;;;;;4977802;28;20208;-72
2023/11/21 07:09:38;;;;;;;10.43;7.30;;;6.60;99.90;;;;;;4974730;28;20215;-74
2023/11/21 07:12:07;;;;;;;10.75;6.80;;;6.60;99.90;;;;;;4984770;28;20232;-73
2023/11/21 07:14:34;;;;;;;9.55;7.53;;;6.60;99.90;;;;;;4989763;28;20254;-73
2023/11/21 07:17:00;;;;;;;12.88;7.35;;;6.60;99.90;;;;;;4991060;28;20713;-73
2023/11/21 07:19:28;;;;;;;13.52;7.43;;;6.60;99.90;;;;;;4985957;28;20778;-72
2023/11/21 07:21:55;;;;;;;9.00;7.30;;;6.60;99.90;;;;;;4989591;28;20309;-71
2023/11/21 07:24:23;;;;;;;8.85;7.50;;;6.60;99.90;;;;;;4990709;28;20291;-71
2023/11/21 07:26:50;;;;;;;10.40;7.45;;;6.60;99.90;;;;;;4988977;28;20240;-72
2023/11/21 07:29:16;;;;;;;9.50;6.72;;;6.70;99.90;;;;;;4989011;28;20215;-72
2023/11/21 07:31:43;;;;;;;13.88;6.70;;;6.70;99.90;;;;;;4977710;28;20223;-71
2023/11/21 07:34:12;;;;;;;12.45;6.60;;;6.70;99.90;;;;;;4975131;28;20208;-71
2023/11/21 07:36:40;;;;;;;9.70;6.75;;;6.70;99.90;;;;;;4976588;28;20204;-72
2023/11/21 07:39:06;;;;;;;14.98;8.82;;;6.70;99.90;;;;;;4980793;28;20476;-72
2023/11/21 07:41:33;;;;;;;12.27;7.70;;;6.70;99.90;;;;;;4976752;28;20245;-71
2023/11/21 07:44:00;;;;;;;15.68;8.35;;;6.70;99.90;;;;;;4981357;28;20227;-72
2023/11/21 07:46:27;;;;;;;12.75;7.05;;;6.70;99.90;;;;;;4983843;28;20209;-73
2023/11/21 07:48:55;;;;;;;13.80;7.57;;;6.70;99.90;;;;;;4977178;28;20208;-72
2023/11/21 07:51:22;;;;;;;12.45;6.05;;;6.70;99.90;;;;;;4979275;28;20215;-71
2023/11/21 07:53:50;;;;;;;10.80;5.95;;;6.70;99.90;;;;;;4984266;28;20214;-72
2023/11/21 07:56:17;;;;;;;9.32;6.60;;;6.70;99.90;;;;;;4979375;28;20208;-72
2023/11/21 07:58:44;;;;;;;12.90;7.10;;;6.70;99.90;;;;;;4990827;28;20204;-73
2023/11/21 08:01:11;;;;;;;10.82;6.10;;;6.70;99.90;;;;;;4983104;28;20235;-73
2023/11/21 08:03:38;;;;;;;12.48;7.70;;;6.70;99.90;;;;;;4989385;28;20208;-72
2023/11/21 08:06:05;;;;;;;10.57;7.05;;;6.70;99.90;;;;;;4987133;28;20211;-72
2023/11/21 08:08:32;;;;;;;10.65;7.90;;;6.70;99.90;;;;;;4980368;28;20222;-71
2023/11/21 08:11:01;;;;;;;12.65;7.00;;;6.70;99.90;;;;;;4975922;28;20231;-73
2023/11/21 08:13:30;;;;;;;9.13;6.25;;;6.70;99.90;;;;;;4981406;28;20362;-71
2023/11/21 08:16:01;;;;;;;14.52;7.65;;;6.70;99.90;;;;;;4980616;28;20593;-73
2023/11/21 08:18:28;;;;;;;11.57;7.10;;;6.70;99.90;;;;;;4979533;28;20213;-71
2023/11/21 08:20:56;;;;;;;13.23;7.25;;;6.70;99.90;;;;;;4980542;28;20341;-74
2023/11/21 08:23:25;;;;;;;11.73;7.00;;;6.80;99.90;;;;;;4981910;28;20224;-72
2023/11/21 08:25:52;;;;;;;9.65;6.55;;;6.80;99.90;;;;;;4984304;28;20213;-73
2023/11/21 08:28:25;;;;;;;12.10;8.00;;;6.80;99.90;;;;;;4994733;28;20208;-73
2023/11/21 08:30:52;;;;;;;12.23;6.97;;;6.80;99.90;;;;;;4993139;28;20251;-69
2023/11/21 08:33:19;;;;;;;12.85;7.35;;;6.80;99.90;;;;;;4997973;28;20196;-72
2023/11/21 08:35:46;;;;;;;9.98;6.53;;;6.90;99.90;;;;;;4995454;28;20240;-70
2023/11/21 08:38:13;;;;;;;13.02;8.20;;;6.90;99.90;;;;;;5001207;28;20223;-73
2023/11/21 08:40:40;;;;;;;13.05;7.40;;;6.90;99.90;;;;;;4993891;28;20223;-73
2023/11/21 08:43:06;;;;;;;6.53;5.88;;;6.90;99.90;;;;;;4992266;28;20228;-72
2023/11/21 08:45:35;;;;;;;9.68;6.75;;;6.90;99.90;;;;;;4988275;28;20219;-72
2023/11/21 08:48:02;;;;;;;8.55;6.28;;;6.90;99.90;;;;;;4990059;28;20222;-72
2023/11/21 08:50:28;;;;;;;13.35;7.60;;;6.90;99.90;;;;;;4983384;28;20295;-70
2023/11/21 08:52:55;;;;;;;11.65;7.10;;;7.00;99.90;;;;;;4986569;28;20200;-73
2023/11/21 08:55:22;;;;;;;8.15;5.78;;;7.00;99.90;;;;;;4988831;28;20291;-72
2023/11/21 08:57:49;;;;;;;11.02;6.22;;;7.00;99.90;;;;;;4983158;28;20238;-68
2023/11/21 09:00:16;;;;;;;9.93;6.55;;;7.00;99.90;;;;;;4984966;28;20205;-72
2023/11/21 09:02:45;;;;;;;10.02;7.00;;;7.00;99.90;;;;;;4988443;28;20260;-72
2023/11/21 09:05:13;;;;;;;14.43;7.75;;;7.10;99.90;;;;;;4988036;28;20219;-72
2023/11/21 09:07:41;;;;;;;13.95;9.15;;;7.10;99.90;;;;;;4987283;28;20310;-73
2023/11/21 09:10:09;;;;;;;12.98;8.18;;;7.20;99.90;;;;;;4986789;28;20633;-73
2023/11/21 09:12:37;;;;;;;11.07;6.80;;;7.20;99.90;;;;;;4988885;28;20638;-74
2023/11/21 09:15:04;;;;;;;10.48;7.68;;;7.20;99.90;;;;;;4982147;28;20212;-72
2023/11/21 09:17:31;;;;;;;8.25;6.90;;;7.20;99.90;;;;;;4978740;28;20225;-73
2023/11/21 09:19:59;;;;;;;9.63;6.25;;;7.30;99.90;;;;;;4975594;28;20204;-73
2023/11/21 09:22:26;;;;;;;9.32;5.35;;;7.30;99.90;;;;;;4979309;28;20240;-72
2023/11/21 09:24:53;;;;;;;10.32;6.68;;;7.20;99.90;;;;;;4981350;28;20205;-73
2023/11/21 09:27:21;;;;;;;9.98;7.90;;;7.30;99.90;;;;;;4978239;28;20214;-74
2023/11/21 09:29:48;;;;;;;8.77;5.97;;;7.20;99.90;;;;;;4981642;28;20276;-73
2023/11/21 09:32:18;;;;;;;9.27;6.25;;;7.30;99.90;;;;;;4980321;28;20229;-72
2023/11/21 09:34:45;;;;;;;12.95;8.10;;;7.30;99.90;;;;;;4983687;28;20797;-73
2023/11/21 09:37:13;;;;;;;12.23;6.10;;;7.40;99.90;;;;;;4980929;28;20296;-70
2023/11/21 09:39:41;;;;;;;12.75;6.70;;;7.40;99.90;;;;;;4978140;28;20205;-72
2023/11/21 09:42:12;;;;;;;9.48;6.40;;;7.40;99.90;;;;;;4981473;28;20313;-72
2023/11/21 09:44:47;;;;;;;9.60;5.93;;;7.40;99.90;;;;;;4980736;28;20291;-72
2023/11/21 09:47:16;;;;;;;7.03;6.20;;;7.40;99.90;;;;;;4979093;28;20586;-72
2023/11/21 09:49:49;;;;;;;10.35;5.80;;;7.40;99.90;;;;;;4983985;28;20251;-71
2023/11/21 09:52:25;;;;;;;7.05;5.25;;;7.40;99.90;;;;;;4978683;28;20311;-72
2023/11/21 09:54:53;;;;;;;8.73;5.40;;;7.40;99.90;;;;;;4985524;28;20299;-71
2023/11/21 09:57:21;;;;;;;8.65;6.35;;;7.40;99.90;;;;;;4987413;28;20213;-72
2023/11/21 09:59:51;;;;;;;9.95;5.68;;;7.50;99.90;;;;;;4982133;28;20593;-72
2023/11/21 10:02:20;;;;;;;5.22;4.50;;;7.50;99.90;;;;;;4982575;28;20712;-71
2023/11/21 10:04:47;;;;;;;11.38;5.25;;;7.50;99.90;;;;;;4982598;28;20200;-71
2023/11/21 10:07:18;;;;;;;7.45;5.32;;;7.50;99.90;;;;;;4977680;28;20201;-72
2023/11/21 10:09:47;;;;;;;7.80;6.18;;;7.50;99.90;;;;;;4982258;28;20227;-72
2023/11/21 10:12:16;;;;;;;5.75;4.63;;;7.50;99.90;;;;;;4979510;28;20597;-72
2023/11/21 10:14:44;;;;;;;6.65;6.07;;;7.60;99.90;;;;;;4983226;28;20211;-72
2023/11/21 10:17:13;;;;;;;7.15;5.78;;;7.60;99.90;;;;;;4985700;28;20325;-73
2023/11/21 10:19:40;;;;;;;6.15;5.10;;;7.60;99.90;;;;;;4985324;28;20786;-73
2023/11/21 10:22:07;;;;;;;7.35;5.95;;;7.60;99.90;;;;;;4983967;28;20238;-72
2023/11/21 10:24:34;;;;;;;10.63;5.47;;;7.60;99.90;;;;;;4979547;28;20634;-73
2023/11/21 10:27:02;;;;;;;6.22;5.07;;;7.60;99.90;;;;;;4984805;28;20280;-73
2023/11/21 10:29:31;;;;;;;7.00;5.03;;;7.60;99.90;;;;;;4978625;28;20309;-71
2023/11/21 10:31:58;;;;;;;5.65;5.15;;;7.70;99.90;;;;;;4981796;28;20363;-69
2023/11/21 10:34:27;;;;;;;6.38;5.25;;;7.70;99.90;;;;;;4985193;28;20209;-72
2023/11/21 10:36:57;;;;;;;6.60;5.07;;;7.70;99.90;;;;;;4980806;28;20208;-72
2023/11/21 10:39:27;;;;;;;7.90;6.45;;;7.70;99.90;;;;;;4986873;28;20205;-72
2023/11/21 10:41:55;;;;;;;6.82;5.43;;;7.80;99.90;;;;;;4977969;28;20976;-72
2023/11/21 10:44:24;;;;;;;5.97;4.95;;;7.80;99.90;;;;;;4981214;28;20594;-71
2023/11/21 10:46:54;;;;;;;5.18;4.72;;;7.80;99.90;;;;;;4981322;28;20225;-72
2023/11/21 10:49:21;;;;;;;6.45;5.28;;;7.80;99.90;;;;;;4980164;28;20300;-72
2023/11/21 10:51:50;;;;;;;8.38;5.32;;;7.80;99.90;;;;;;4986739;28;20224;-73
2023/11/21 10:54:19;;;;;;;5.88;5.35;;;7.90;99.90;;;;;;4982050;28;20666;-71
2023/11/21 10:56:47;;;;;;;6.97;5.40;;;7.90;99.90;;;;;;4980495;28;20265;-73
2023/11/21 10:59:16;;;;;;;7.35;4.65;;;7.90;99.90;;;;;;4980611;28;20216;-72
2023/11/21 11:01:46;;;;;;;6.20;4.38;;;7.90;99.90;;;;;;4980753;28;21790;-71
2023/11/21 11:04:16;;;;;;;4.75;3.53;;;7.90;99.90;;;;;;4985523;28;20249;-71
2023/11/21 11:06:44;;;;;;;7.47;4.50;;;7.80;99.90;;;;;;4985041;28;20209;-72
2023/11/21 11:09:16;;;;;;;4.57;4.15;;;7.70;99.90;;;;;;4985057;28;20237;-73
2023/11/21 11:11:44;;;;;;;4.38;4.05;;;7.80;99.90;;;;;;4984924;28;20321;-72
2023/11/21 11:14:12;;;;;;;4.78;4.43;;;7.70;99.90;;;;;;4987435;28;20208;-73
2023/11/21 11:16:41;;;;;;;3.72;3.42;;;7.70;99.90;;;;;;4985256;28;20949;-73
2023/11/21 11:19:08;;;;;;;4.10;3.70;;;7.70;99.90;;;;;;4983694;28;20210;-73
2023/11/21 11:21:48;;;;;;;4.30;3.90;;;7.80;99.90;;;;;;4983973;28;20225;-72
2023/11/21 11:24:34;;;;;;;5.25;4.60;;;7.80;99.90;;;;;;4983877;28;20256;-73
2023/11/21 11:27:11;;;;;;;5.25;4.00;;;7.80;99.90;;;;;;4981608;28;20217;-74
2023/11/21 11:29:48;;;;;;;4.60;4.20;;;7.90;99.90;;;;;;4979231;28;20641;-73
2023/11/21 11:32:22;;;;;;;4.53;4.22;;;7.90;99.90;;;;;;4983456;28;20230;-73
2023/11/21 11:34:57;;;;;;;4.15;3.75;;;7.90;99.90;;;;;;4984837;28;20217;-72
2023/11/21 11:37:24;;;;;;;4.57;4.18;;;8.00;99.90;;;;;;4980199;28;20306;-73
2023/11/21 11:39:54;;;;;;;3.80;3.50;;;8.00;99.90;;;;;;4988763;28;20210;-73
2023/11/21 11:42:23;;;;;;;5.90;4.25;;;8.00;99.90;;;;;;4991141;28;20782;-72
2023/11/21 11:44:52;;;;;;;2.55;2.15;;;8.00;99.90;;;;;;4986330;28;20240;-73
2023/11/21 11:47:22;;;;;;;4.35;2.97;;;7.90;99.90;;;;;;4987869;28;20213;-73
2023/11/21 11:50:07;;;;;;;2.92;2.80;;;7.90;99.90;;;;;;4978481;28;20214;-74
2023/11/21 11:52:39;;;;;;;4.45;3.13;;;7.70;99.90;;;;;;4976664;28;20807;-74
2023/11/21 11:55:09;;;;;;;2.92;2.78;;;7.70;99.90;;;;;;4980546;28;20609;-73
2023/11/21 11:57:38;;;;;;;3.30;3.05;;;7.70;99.90;;;;;;4976725;28;20237;-73
2023/11/21 12:02:51;;;;;;;3.00;2.90;;;7.60;99.90;;;;;;5087297;27;20591;-72
2023/11/21 12:05:18;;;;;;;4.40;3.97;;;7.70;99.90;;;;;;5086587;28;20273;-73
2023/11/21 12:07:47;;;;;;;3.05;2.88;;;7.60;99.90;;;;;;5084582;28;20206;-72
2023/11/21 12:10:17;;;;;;;3.30;3.20;;;7.60;99.90;;;;;;5084833;28;20259;-71
2023/11/21 12:12:46;;;;;;;4.15;2.72;;;7.60;99.90;;;;;;5072825;28;20219;-72
2023/11/21 12:15:13;;;;;;;3.80;2.85;;;7.60;99.90;;;;;;5074751;28;20206;-73
2023/11/21 12:17:40;;;;;;;3.17;2.97;;;7.50;99.90;;;;;;5081207;28;20222;-73
2023/11/21 12:20:14;;;;;;;2.85;2.70;;;7.50;99.90;;;;;;5078165;28;20201;-73
2023/11/21 12:22:47;;;;;;;2.75;2.65;;;7.50;99.90;;;;;;5078921;28;20700;-73
2023/11/21 12:25:16;;;;;;;3.05;2.85;;;7.50;99.90;;;;;;5081480;28;20274;-73
2023/11/21 12:27:44;;;;;;;2.80;2.35;;;7.50;99.90;;;;;;5075177;28;20598;-73
2023/11/21 12:30:15;;;;;;;2.83;2.40;;;7.50;99.90;;;;;;5078324;28;20260;-72
2023/11/21 12:32:42;;;;;;;2.85;2.65;;;7.50;99.90;;;;;;5079565;28;20208;-71
2023/11/21 12:35:11;;;;;;;2.55;2.45;;;7.50;99.90;;;;;;5076697;28;20211;-72
2023/11/21 12:37:38;;;;;;;3.42;2.67;;;7.50;99.90;;;;;;5083794;28;20252;-73
2023/11/21 12:40:07;;;;;;;3.80;2.00;;;7.40;99.90;;;;;;5084848;28;20267;-72
2023/11/21 12:42:34;;;;;;;3.25;3.00;;;7.40;99.90;;;;;;5074552;28;20283;-73
2023/11/21 12:45:19;;;;;;;3.05;2.88;;;7.40;99.90;;;;;;5082860;28;20292;-73
2023/11/21 12:47:47;;;;;;;2.95;2.75;;;7.50;99.90;;;;;;5084745;28;20226;-71
2023/11/21 12:50:16;;;;;;;5.13;3.35;;;7.50;99.90;;;;;;5085888;28;20664;-72
2023/11/21 12:52:48;;;;;;;2.58;2.42;;;7.60;99.90;;;;;;5086258;28;20211;-70
2023/11/21 12:55:16;;;;;;;3.03;2.08;;;7.50;99.90;;;;;;5078205;28;20215;-71
2023/11/21 12:57:44;;;;;;;3.47;3.22;;;7.50;99.90;;;;;;5078926;28;20233;-71
2023/11/21 13:00:23;;;;;;;3.63;3.42;;;7.50;99.90;;;;;;5073618;28;20463;-71
2023/11/21 13:02:52;;;;;;;4.40;4.00;;;7.50;99.90;;;;;;5073017;28;20318;-72
2023/11/21 13:05:27;;;;;;;4.32;3.95;;;7.40;99.90;;;;;;5074820;28;20582;-71
2023/11/21 13:07:54;;;;;;;3.40;3.10;;;7.40;99.90;;;;;;5079264;28;20207;-72
2023/11/21 13:10:25;;;;;;;3.03;2.83;;;7.40;99.90;;;;;;5077392;28;20672;-72
2023/11/21 13:12:53;;;;;;;4.13;3.00;;;7.40;99.90;;;;;;5073464;28;20244;-72
2023/11/21 13:15:20;;;;;;;3.80;3.58;;;7.30;99.90;;;;;;5066192;28;20199;-71
2023/11/21 13:17:47;;;;;;;3.55;3.25;;;7.40;99.90;;;;;;5066948;28;20214;-71
2023/11/21 13:20:16;;;;;;;2.92;2.72;;;7.40;99.90;;;;;;5072509;28;20209;-72
2023/11/21 13:22:49;;;;;;;8.68;3.35;;;7.30;99.90;;;;;;5067124;28;20232;-71
2023/11/21 13:25:17;;;;;;;3.67;3.40;;;7.40;99.90;;;;;;5061276;28;20207;-72
2023/11/21 13:27:45;;;;;;;2.20;2.10;;;7.40;99.90;;;;;;5062213;28;20211;-72
2023/11/21 13:30:15;;;;;;;4.63;3.10;;;7.40;99.90;;;;;;5067172;28;20280;-71
2023/11/21 13:32:42;;;;;;;5.57;3.20;;;7.30;99.90;;;;;;5061163;28;20247;-71
2023/11/21 13:35:15;;;;;;;3.08;2.53;;;7.30;99.90;;;;;;5060487;28;20648;-71
2023/11/21 13:37:42;;;;;;;3.30;3.03;;;7.40;99.90;;;;;;5062451;28;20290;-71
2023/11/21 13:40:14;;;;;;;3.63;3.42;;;7.40;99.90;;;;;;5062057;28;20289;-71
2023/11/21 13:42:41;;;;;;;5.95;4.00;;;7.40;99.90;;;;;;5061867;28;20224;-71
2023/11/21 13:45:09;;;;;;;5.95;3.65;;;7.40;99.90;;;;;;5066194;28;20203;-71
2023/11/21 13:47:37;;;;;;;2.90;2.72;;;7.40;99.90;;;;;;5059538;28;20199;-72
2023/11/21 13:50:08;;;;;;;4.10;3.78;;;7.40;99.90;;;;;;5066480;28;20209;-72
2023/11/21 13:52:35;;;;;;;4.53;3.00;;;7.40;99.90;;;;;;5061748;28;20265;-72
2023/11/21 13:55:06;;;;;;;3.60;3.30;;;7.40;99.90;;;;;;5061417;28;20558;-72
2023/11/21 13:57:35;;;;;;;3.35;3.05;;;7.40;99.90;;;;;;5062975;28;20206;-71
2023/11/21 14:00:01;;;;;;;4.00;3.40;;;7.40;99.90;;;;;;5064338;28;20576;-72
2023/11/21 14:02:34;;;;;;;3.88;3.58;;;7.40;99.90;;;;;;5062124;28;20237;-72
2023/11/21 14:05:08;;;;;;;4.93;3.28;;;7.40;99.90;;;;;;5066877;28;20289;-72
2023/11/21 14:07:35;;;;;;;3.15;3.05;;;7.40;99.90;;;;;;5067540;28;20203;-72
2023/11/21 14:10:03;;;;;;;3.72;3.38;;;7.40;99.90;;;;;;5057661;28;20207;-70
2023/11/21 14:12:36;;;;;;;4.20;3.50;;;7.40;99.90;;;;;;5051635;28;21419;-68
2023/11/21 14:15:09;;;;;;;7.47;4.10;;;7.30;99.90;;;;;;5061285;28;20252;-70
2023/11/21 14:17:37;;;;;;;6.30;4.50;;;7.30;99.90;;;;;;5060983;28;20209;-72
2023/11/21 14:20:06;;;;;;;3.97;3.55;;;7.30;99.90;;;;;;5060367;28;20207;-72
2023/11/21 14:22:32;;;;;;;3.90;2.72;;;7.30;99.90;;;;;;5060994;28;20277;-70
2023/11/21 14:25:03;;;;;;;4.53;4.22;;;7.30;99.90;;;;;;5053125;28;20226;-70
2023/11/21 14:27:30;;;;;;;3.53;3.33;;;7.20;99.90;;;;;;5062339;28;20210;-72
2023/11/21 14:29:57;;;;;;;3.78;3.55;;;7.20;99.90;;;;;;5063924;28;20203;-71
2023/11/21 14:32:25;;;;;;;4.00;3.65;;;7.20;99.90;;;;;;5066014;28;20216;-71
2023/11/21 14:34:52;;;;;;;2.65;2.55;;;7.20;99.90;;;;;;5057028;28;20301;-69
2023/11/21 14:37:19;;;;;;;3.83;3.10;;;7.10;99.90;;;;;;5061119;28;20211;-70
2023/11/21 14:39:49;;;;;;;13.40;4.53;;;7.20;99.90;;;;;;5060685;28;20281;-70
2023/11/21 14:42:21;;;;;;;11.88;3.80;;;7.20;99.90;;;;;;5063665;28;20228;-71
2023/11/21 14:44:48;;;;;;;3.80;3.50;;;7.20;99.90;;;;;;5060273;28;20299;-71
2023/11/21 14:47:16;;;;;;;3.88;3.53;;;7.20;99.90;;;;;;5062257;28;20211;-69
2023/11/21 14:49:54;;;;;;;3.38;3.17;;;7.20;99.90;;;;;;5058524;28;20211;-71
2023/11/21 14:52:32;;;;;;;6.22;4.28;;;7.20;99.90;;;;;;5059613;28;20226;-71
2023/11/21 14:55:20;;;;;;;5.65;5.25;;;7.20;99.90;;;;;;5055973;28;20205;-71
2023/11/21 14:57:49;;;;;;;3.78;3.47;;;7.20;99.90;;;;;;5061544;28;20207;-70
2023/11/21 15:00:37;;;;;;;4.28;4.05;;;7.20;99.90;;;;;;5060095;28;20230;-73
2023/11/21 15:03:04;;;;;;;3.78;3.58;;;7.20;99.90;;;;;;5055430;28;20328;-71
2023/11/21 15:05:35;;;;;;;4.75;4.35;;;7.20;99.90;;;;;;5067085;28;20199;-71
2023/11/21 15:08:13;;;;;;;4.43;4.03;;;7.20;99.90;;;;;;5062253;28;20208;-72
2023/11/21 15:10:46;;;;;;;5.75;5.25;;;7.20;99.90;;;;;;5058787;28;20275;-72
2023/11/21 15:13:11;;;;;;;8.85;4.68;;;7.10;99.90;;;;;;5066741;28;20674;-72
2023/11/21 15:15:39;;;;;;;6.43;4.47;;;7.10;99.90;;;;;;5061607;28;20207;-71
2023/11/21 15:18:06;;;;;;;5.45;4.93;;;7.10;99.90;;;;;;5062637;28;20202;-70
2023/11/21 15:20:34;;;;;;;4.05;3.85;;;7.00;99.90;;;;;;5061257;28;20798;-71
2023/11/21 15:23:03;;;;;;;4.32;4.03;;;7.00;99.90;;;;;;5061726;28;20269;-71
2023/11/21 15:25:30;;;;;;;4.15;3.85;;;7.00;99.90;;;;;;5061098;28;20214;-71
2023/11/21 15:27:56;;;;;;;4.22;3.83;;;7.00;99.90;;;;;;5063811;28;20217;-71
2023/11/21 15:30:25;;;;;;;3.88;3.60;;;6.90;99.90;;;;;;5059571;28;20210;-71
2023/11/21 15:32:52;;;;;;;3.97;3.78;;;6.90;99.90;;;;;;5061303;28;20700;-71
2023/11/21 15:35:19;;;;;;;3.30;3.15;;;6.90;99.90;;;;;;5052940;28;20221;-71
2023/11/21 15:37:47;;;;;;;4.20;3.83;;;6.90;99.90;;;;;;5061692;28;20209;-71
2023/11/21 15:40:16;;;;;;;3.55;3.25;;;6.90;99.90;;;;;;5063889;28;20214;-71
2023/11/21 15:42:43;;;;;;;2.75;2.55;;;6.90;99.90;;;;;;5060963;28;20568;-72
2023/11/21 15:45:10;;;;;;;2.67;2.58;;;6.90;99.90;;;;;;5059143;28;20647;-72
2023/11/21 15:47:37;;;;;;;7.70;3.63;;;6.90;99.90;;;;;;5057269;28;20206;-72
2023/11/21 15:50:08;;;;;;;3.75;3.42;;;6.90;99.90;;;;;;5062021;28;20213;-72
2023/11/21 15:52:35;;;;;;;2.70;2.50;;;6.90;99.90;;;;;;5060985;28;20599;-72
2023/11/21 15:55:03;;;;;;;3.38;3.17;;;6.80;99.90;;;;;;5057449;28;20221;-69
2023/11/21 15:57:30;;;;;;;4.03;3.78;;;6.80;99.90;;;;;;5061268;28;20206;-70
2023/11/21 15:59:57;;;;;;;3.60;3.30;;;6.80;99.90;;;;;;5057939;28;20202;-69
2023/11/21 16:02:24;;;;;;;4.57;3.70;;;6.70;99.90;;;;;;5058223;28;20248;-71
2023/11/21 16:04:51;;;;;;;3.58;3.38;;;6.70;99.90;;;;;;5060768;28;20600;-71
2023/11/21 16:07:18;;;;;;;3.47;2.60;;;6.70;99.90;;;;;;5060337;28;20706;-72
2023/11/21 16:09:45;;;;;;;3.88;3.40;;;6.70;99.90;;;;;;5063019;28;20251;-71
2023/11/21 16:12:13;;;;;;;3.47;3.17;;;6.70;99.90;;;;;;5058839;28;20222;-72
2023/11/21 16:14:41;;;;;;;3.67;2.53;;;6.70;99.90;;;;;;5056096;28;20320;-72
2023/11/21 16:17:09;;;;;;;2.30;2.22;;;6.60;99.90;;;;;;5061325;28;20286;-71
2023/11/21 16:19:36;;;;;;;2.00;1.73;;;6.60;99.90;;;;;;5062705;28;20237;-72
2023/11/21 16:22:03;;;;;;;2.53;2.40;;;6.50;99.90;;;;;;5056309;28;20224;-72
2023/11/21 16:24:30;;;;;;;3.17;3.00;;;6.50;99.90;;;;;;5056958;28;20220;-72
2023/11/21 16:26:57;;;;;;;2.92;2.72;;;6.40;99.90;;;;;;5059882;28;20214;-72
2023/11/21 16:29:26;;;;;;;3.35;3.10;;;6.40;99.90;;;;;;5057329;28;20217;-72
2023/11/21 16:31:54;;;;;;;2.53;2.42;;;6.40;99.90;;;;;;5063783;28;20256;-71
2023/11/21 16:34:21;;;;;;;2.50;2.38;;;6.40;99.90;;;;;;5063651;28;20213;-72
2023/11/21 16:36:49;;;;;;;2.83;2.60;;;6.40;99.90;;;;;;5061681;28;20206;-73
2023/11/21 16:39:16;;;;;;;3.13;2.95;;;6.40;99.90;;;;;;5065134;28;20676;-73
2023/11/21 16:41:43;;;;;;;2.80;2.60;;;6.40;99.90;;;;;;5062201;28;20225;-72
2023/11/21 16:44:14;;;;;;;3.10;2.90;;;6.30;99.90;;;;;;5060951;28;20625;-72
2023/11/21 16:46:47;;;;;;;2.75;2.55;;;6.30;99.90;;;;;;5055482;28;20205;-71
2023/11/21 16:49:13;;;;;;;5.30;3.28;;;6.40;99.90;;;;;;5055621;28;20342;-72
2023/11/21 16:51:40;;;;;;;2.95;2.80;;;6.30;99.90;;;;;;5065690;28;20726;-72
2023/11/21 16:54:08;;;;;;;3.45;3.00;;;6.30;99.90;;;;;;5068770;28;20664;-71
2023/11/21 16:56:35;;;;;;;3.63;3.05;;;6.30;99.90;;;;;;5066978;28;20204;-73
2023/11/21 16:59:03;;;;;;;3.42;3.10;;;6.30;99.90;;;;;;5068675;28;20278;-74
2023/11/21 17:01:29;;;;;;;3.15;2.95;;;6.30;99.90;;;;;;5069224;28;20237;-74
2023/11/21 17:03:58;;;;;;;3.08;2.88;;;6.30;99.90;;;;;;5066044;28;20225;-72
2023/11/21 17:06:26;;;;;;;3.15;2.67;;;6.30;99.90;;;;;;5069210;28;20199;-72
2023/11/21 17:08:52;;;;;;;2.90;2.70;;;6.30;99.90;;;;;;5066551;28;20514;-72
2023/11/21 17:11:19;;;;;;;2.83;2.47;;;6.20;99.90;;;;;;5067916;28;20232;-72
2023/11/21 17:13:46;;;;;;;2.78;2.50;;;6.20;99.90;;;;;;5070665;28;20218;-73
2023/11/21 17:16:13;;;;;;;4.65;2.88;;;6.20;99.90;;;;;;5065287;28;20210;-73
2023/11/21 17:18:39;;;;;;;3.22;3.10;;;6.20;99.90;;;;;;5058522;28;20220;-74
2023/11/21 17:21:08;;;;;;;1.88;1.77;;;6.20;99.90;;;;;;5062900;28;20225;-72
2023/11/21 17:23:35;;;;;;;1.85;1.75;;;6.10;99.90;;;;;;5055848;28;20228;-73
2023/11/21 17:26:02;;;;;;;1.23;1.23;;;6.10;99.90;;;;;;5070412;28;20619;-72
2023/11/21 17:28:29;;;;;;;4.32;2.05;;;6.10;99.90;;;;;;5067241;28;20213;-73
2023/11/21 17:30:56;;;;;;;2.13;1.92;;;6.00;99.90;;;;;;5068898;28;20225;-73
2023/11/21 17:33:23;;;;;;;1.75;1.65;;;6.10;99.90;;;;;;5067199;28;20304;-73
2023/11/21 17:35:50;;;;;;;2.20;2.10;;;6.00;99.90;;;;;;5054797;28;20233;-73
2023/11/21 17:38:18;;;;;;;6.00;2.63;;;6.00;99.90;;;;;;5063774;28;20206;-73
2023/11/21 17:40:45;;;;;;;7.40;3.13;;;6.00;99.90;;;;;;5061640;28;20222;-73
2023/11/21 17:43:12;;;;;;;1.88;1.77;;;6.10;99.90;;;;;;5061982;28;20224;-73
2023/11/21 17:45:39;;;;;;;2.40;2.00;;;6.10;99.90;;;;;;5063214;28;20672;-72
2023/11/21 17:48:07;;;;;;;3.38;3.03;;;6.10;99.90;;;;;;5063756;28;20197;-74
2023/11/21 17:50:33;;;;;;;2.08;1.98;;;6.10;99.90;;;;;;5062186;28;20293;-72
2023/11/21 17:53:01;;;;;;;2.13;2.03;;;6.00;99.90;;;;;;5061810;28;20331;-73
2023/11/21 17:55:29;;;;;;;2.50;2.30;;;6.00;99.90;;;;;;5063454;28;20296;-73
2023/11/21 17:57:57;;;;;;;2.25;2.15;;;6.00;99.90;;;;;;5060082;28;20203;-72
2023/11/21 18:00:26;;;;;;;2.72;2.53;;;6.00;99.90;;;;;;5060405;28;20660;-72
2023/11/21 18:02:52;;;;;;;1.95;1.80;;;6.00;99.90;;;;;;5065837;28;20329;-75
2023/11/21 18:05:21;;;;;;;2.63;2.42;;;5.90;99.90;;;;;;5068630;28;20201;-73